createdAt,value
2018-04-12T00:00:44.415Z,49.03
2018-04-12T00:03:13.325Z,46.97
2018-04-12T00:05:42.224Z,46.05
2018-04-12T00:08:11.101Z,48.53
2018-04-12T00:10:39.986Z,49.47
2018-04-12T00:13:08.907Z,45.58
2018-04-12T00:15:37.040Z,47.20
2018-04-12T00:18:05.925Z,46.17
2018-04-12T00:20:34.062Z,46.17
2018-04-12T00:23:02.183Z,51.53
2018-04-12T00:25:31.084Z,52.85
2018-04-12T00:27:59.973Z,52.72
2018-04-12T00:30:28.902Z,49.95
2018-04-12T00:32:57.060Z,50.22
2018-04-12T00:35:25.226Z,53.95
2018-04-12T00:37:54.112Z,53.72
2018-04-12T00:40:22.998Z,55.55
2018-04-12T00:42:51.896Z,52.17
2018-04-12T00:45:20.080Z,55.42
2018-04-12T00:47:48.198Z,56.40
2018-04-12T00:50:16.426Z,53.72
2018-04-12T00:52:44.559Z,56.65
2018-04-12T00:55:13.457Z,57.40
2018-04-12T00:57:42.376Z,53.87
2018-04-12T01:00:10.490Z,52.08
2018-04-12T01:02:38.721Z,52.38
2018-04-12T01:05:06.871Z,53.30
2018-04-12T01:07:35.773Z,55.85
2018-04-12T01:10:04.661Z,53.83
2018-04-12T01:12:33.553Z,57.75
2018-04-12T01:15:02.452Z,56.42
2018-04-12T01:17:31.450Z,54.05
2018-04-12T01:19:59.577Z,55.83
2018-04-12T01:22:27.708Z,56.60
2018-04-12T01:24:55.883Z,55.17
2018-04-12T01:27:24.017Z,55.45
2018-04-12T01:29:52.915Z,55.83
2018-04-12T01:32:21.802Z,57.28
2018-04-12T01:34:50.694Z,57.20
2018-04-12T01:37:19.605Z,56.35
2018-04-12T01:39:47.776Z,55.95
2018-04-12T01:42:15.906Z,56.92
2018-04-12T01:44:44.033Z,60.42
2018-04-12T01:47:12.186Z,57.40
2018-04-12T01:49:41.086Z,55.45
2018-04-12T01:52:09.266Z,54.88
2018-04-12T01:54:37.790Z,53.40
2018-04-12T01:57:05.918Z,53.80
2018-04-12T01:59:34.026Z,48.47
2018-04-12T02:02:02.148Z,49.03
2018-04-12T02:04:31.157Z,48.65
2018-04-12T02:06:59.301Z,49.97
2018-04-12T02:09:28.198Z,49.20
2018-04-12T02:11:57.086Z,51.40
2018-04-12T02:14:26.013Z,51.55
2018-04-12T02:16:54.141Z,49.30
2018-04-12T02:19:23.039Z,49.67
2018-04-12T02:21:51.933Z,48.40
2018-04-12T02:24:20.835Z,50.53
2018-04-12T02:26:49.742Z,49.30
2018-04-12T02:29:17.910Z,47.25
2018-04-12T02:31:46.027Z,50.40
2018-04-12T02:34:14.167Z,46.17
2018-04-12T02:36:42.306Z,48.55
2018-04-12T02:39:11.199Z,45.97
2018-04-12T02:41:40.944Z,45.35
2018-04-12T02:44:09.085Z,44.85
2018-04-12T02:46:38.091Z,45.72
2018-04-12T02:49:06.213Z,49.10
2018-04-12T02:51:34.337Z,45.30
2018-04-12T02:54:02.468Z,44.40
2018-04-12T02:56:30.609Z,48.38
2018-04-12T02:58:58.745Z,42.67
2018-04-12T03:01:28.081Z,46.83
2018-04-12T03:03:56.201Z,41.40
2018-04-12T03:06:25.105Z,43.92
2018-04-12T03:08:54.011Z,47.97
2018-04-12T03:11:22.187Z,44.33
2018-04-12T03:13:50.300Z,47.10
2018-04-12T03:16:18.436Z,43.85
2018-04-12T03:18:46.578Z,43.38
2018-04-12T03:21:15.469Z,42.55
2018-04-12T03:23:44.376Z,43.42
2018-04-12T03:26:12.563Z,45.35
2018-04-12T03:28:40.732Z,45.50
2018-04-12T03:31:08.864Z,41.05
2018-04-12T03:33:37.008Z,40.38
2018-04-12T03:36:05.117Z,39.63
2018-04-12T03:38:33.270Z,43.42
2018-04-12T03:41:01.386Z,42.83
2018-04-12T03:43:29.510Z,43.17
2018-04-12T03:45:57.648Z,47.13
2018-04-12T03:48:25.787Z,43.33
2018-04-12T03:50:54.694Z,43.28
2018-04-12T03:53:23.578Z,44.35
2018-04-12T03:55:52.578Z,43.65
2018-04-12T03:58:20.762Z,44.15
2018-04-12T04:00:48.878Z,38.75
2018-04-12T04:03:17.101Z,42.53
2018-04-12T04:05:45.235Z,42.33
2018-04-12T04:08:13.406Z,42.75
2018-04-12T04:10:41.526Z,41.25
2018-04-12T04:13:09.649Z,39.05
2018-04-12T04:15:49.713Z,34.00
2018-04-12T04:18:29.657Z,35.85
2018-04-12T04:21:03.735Z,37.53
2018-04-12T04:23:32.583Z,40.25
2018-04-12T04:26:01.465Z,40.75
2018-04-12T04:28:29.613Z,38.45
2018-04-12T04:30:57.738Z,36.10
2018-04-12T04:33:25.934Z,40.38
2018-04-12T04:35:54.082Z,40.30
2018-04-12T04:38:22.270Z,39.60
2018-04-12T04:40:50.398Z,44.13
2018-04-12T04:43:18.514Z,39.38
2018-04-12T04:45:46.680Z,46.20
2018-04-12T04:48:15.577Z,48.30
2018-04-12T04:50:44.449Z,43.58
2018-04-12T04:53:12.585Z,44.88
2018-04-12T04:55:40.731Z,46.63
2018-04-12T04:58:08.869Z,46.92
2018-04-12T05:00:36.999Z,47.00
2018-04-12T05:03:05.111Z,48.38
2018-04-12T05:05:34.016Z,54.42
2018-04-12T05:08:02.154Z,51.65
2018-04-12T05:10:30.289Z,46.13
2018-04-12T05:12:58.417Z,47.53
2018-04-12T05:15:26.590Z,46.65
2018-04-12T05:17:54.676Z,50.58
2018-04-12T05:20:22.832Z,47.70
2018-04-12T05:22:51.721Z,52.70
2018-04-12T05:25:20.615Z,55.00
2018-04-12T05:27:49.572Z,54.13
2018-04-12T05:30:17.669Z,55.55
2018-04-12T05:32:46.553Z,56.40
2018-04-12T05:35:15.455Z,61.30
2018-04-12T05:37:44.375Z,64.47
2018-04-12T05:40:12.509Z,58.53
2018-04-12T05:42:41.402Z,58.35
2018-04-12T05:45:10.321Z,63.63
2018-04-12T05:47:41.598Z,60.28
2018-04-12T05:50:09.731Z,56.47
2018-04-12T05:52:38.619Z,60.55
2018-04-12T05:55:06.802Z,57.67
2018-04-12T05:57:34.988Z,62.70
2018-04-12T06:00:03.172Z,65.32
2018-04-12T06:02:31.288Z,62.38
2018-04-12T06:04:59.410Z,61.85
2018-04-12T06:07:27.575Z,66.00
2018-04-12T06:09:55.740Z,65.20
2018-04-12T06:12:23.862Z,63.87
2018-04-12T06:14:52.012Z,68.40
2018-04-12T06:17:20.118Z,62.10
2018-04-12T06:19:48.267Z,64.35
2018-04-12T06:22:16.394Z,67.20
2018-04-12T06:24:44.588Z,68.22
2018-04-12T06:27:12.731Z,65.90
2018-04-12T06:29:41.750Z,64.62
2018-04-12T06:32:09.866Z,66.32
2018-04-12T06:34:38.012Z,66.05
2018-04-12T06:37:06.134Z,65.07
2018-04-12T06:39:35.051Z,65.62
2018-04-12T06:42:03.178Z,66.20
2018-04-12T06:44:31.322Z,69.22
2018-04-12T06:46:59.469Z,65.10
2018-04-12T06:49:27.597Z,66.22
2018-04-12T06:51:55.723Z,81.45
2018-04-12T06:54:23.893Z,74.53
2018-04-12T06:56:52.019Z,73.68
2018-04-12T06:59:20.235Z,74.32
2018-04-12T07:01:48.432Z,78.32
2018-04-12T07:04:16.554Z,73.93
2018-04-12T07:06:45.445Z,77.32
2018-04-12T07:09:14.344Z,77.62
2018-04-12T07:11:43.256Z,82.60
2018-04-12T07:14:11.391Z,81.55
2018-04-12T07:16:40.336Z,82.68
2018-04-12T07:19:08.468Z,85.87
2018-04-12T07:21:37.373Z,84.70
2018-04-12T07:24:05.519Z,85.22
2018-04-12T07:26:33.640Z,82.40
2018-04-12T07:29:01.799Z,86.15
2018-04-12T07:31:29.949Z,88.78
2018-04-12T07:33:58.849Z,93.03
2018-04-12T07:36:26.989Z,89.15
2018-04-12T07:38:55.135Z,88.90
2018-04-12T07:41:23.279Z,91.80
2018-04-12T07:43:51.497Z,84.32
2018-04-12T07:46:19.583Z,89.28
2018-04-12T07:48:47.754Z,89.75
2018-04-12T07:51:15.938Z,90.62
2018-04-12T07:53:44.054Z,88.47
2018-04-12T07:56:12.212Z,93.28
2018-04-12T07:58:40.391Z,89.55
2018-04-12T08:01:08.571Z,91.78
2018-04-12T08:03:36.737Z,91.93
2018-04-12T08:06:04.869Z,91.75
2018-04-12T08:08:33.007Z,93.70
2018-04-12T08:11:01.169Z,92.97
2018-04-12T08:13:29.347Z,88.57
2018-04-12T08:15:57.535Z,83.95
2018-04-12T08:18:25.671Z,83.55
2018-04-12T08:20:53.844Z,83.82
2018-04-12T08:23:21.966Z,82.43
2018-04-12T08:25:50.102Z,86.10
2018-04-12T08:28:18.285Z,86.43
2018-04-12T08:30:46.426Z,82.97
2018-04-12T08:33:15.322Z,80.13
2018-04-12T08:35:44.226Z,82.28
2018-04-12T08:38:12.356Z,80.62
2018-04-12T08:40:40.495Z,78.83
2018-04-12T08:43:08.625Z,78.57
2018-04-12T08:45:37.538Z,76.47
2018-04-12T08:48:05.682Z,78.83
2018-04-12T08:50:34.590Z,78.32
2018-04-12T08:53:03.362Z,81.57
2018-04-12T08:55:32.388Z,78.37
2018-04-12T08:58:00.571Z,79.87
2018-04-12T09:00:28.710Z,78.28
2018-04-12T09:02:57.655Z,75.60
2018-04-12T09:05:25.791Z,75.70
2018-04-12T09:07:53.914Z,79.07
2018-04-12T09:10:22.139Z,76.90
2018-04-12T09:12:50.278Z,77.25
2018-04-12T09:15:18.502Z,77.25
2018-04-12T09:17:46.658Z,75.55
2018-04-12T09:20:14.800Z,74.28
2018-04-12T09:22:43.724Z,73.40
2018-04-12T09:25:11.887Z,72.68
2018-04-12T09:27:40.882Z,70.17
2018-04-12T09:30:08.946Z,72.77
2018-04-12T09:32:37.875Z,68.63
2018-04-12T09:35:06.011Z,64.83
2018-04-12T09:37:34.917Z,68.60
2018-04-12T09:40:03.066Z,67.00
2018-04-12T09:42:31.995Z,65.87
2018-04-12T09:45:00.119Z,65.67
2018-04-12T09:47:28.284Z,67.50
2018-04-12T09:49:57.938Z,66.97
2018-04-12T09:52:26.097Z,64.60
2018-04-12T09:54:54.986Z,69.87
2018-04-12T09:57:30.490Z,67.33
2018-04-12T09:59:58.677Z,66.32
2018-04-12T10:02:28.576Z,70.22
2018-04-12T10:05:00.665Z,71.03
2018-04-12T10:07:44.850Z,70.07
2018-04-12T10:10:13.714Z,70.90
2018-04-12T10:12:42.618Z,71.03
2018-04-12T10:15:11.546Z,68.57
2018-04-12T10:17:39.671Z,69.93
2018-04-12T10:20:08.694Z,68.50
2018-04-12T10:22:36.966Z,70.33
2018-04-12T10:25:05.095Z,68.40
2018-04-12T10:27:33.986Z,64.68
2018-04-12T10:30:03.106Z,66.85
2018-04-12T10:32:32.018Z,66.20
2018-04-12T10:35:00.286Z,65.65
2018-04-12T10:37:28.466Z,65.13
2018-04-12T10:39:57.347Z,64.30
2018-04-12T10:42:26.458Z,64.40
2018-04-12T10:44:55.538Z,62.27
2018-04-12T10:47:23.710Z,60.90
2018-04-12T10:49:52.609Z,62.57
2018-04-12T10:52:20.765Z,58.40
2018-04-12T10:54:49.663Z,60.27
2018-04-12T10:57:18.553Z,60.38
2018-04-12T10:59:47.451Z,59.70
2018-04-12T11:02:15.601Z,61.00
2018-04-12T11:04:44.502Z,60.80
2018-04-12T11:07:13.405Z,58.53
2018-04-12T11:09:41.569Z,60.80
2018-04-12T11:12:10.597Z,58.27
2018-04-12T11:14:39.177Z,57.17
2018-04-12T11:17:07.292Z,57.67
2018-04-12T11:19:35.453Z,58.27
2018-04-12T11:22:03.595Z,58.00
2018-04-12T11:24:31.727Z,58.10
2018-04-12T11:27:00.626Z,59.03
2018-04-12T11:29:29.520Z,57.63
2018-04-12T11:31:57.656Z,57.27
2018-04-12T11:34:25.926Z,57.67
2018-04-12T11:36:54.001Z,54.57
2018-04-12T11:39:22.113Z,56.10
2018-04-12T11:41:50.279Z,58.53
2018-04-12T11:44:22.843Z,56.03
2018-04-12T11:46:52.504Z,58.83
2018-04-12T11:49:20.631Z,58.27
2018-04-12T11:51:48.822Z,56.00
2018-04-12T11:54:16.941Z,58.67
2018-04-12T11:56:45.069Z,62.17
2018-04-12T11:59:14.073Z,64.77
2018-04-12T12:01:42.282Z,65.37
2018-04-12T12:04:10.418Z,65.27
2018-04-12T12:06:38.536Z,64.17
2018-04-12T12:09:08.189Z,67.20
2018-04-12T12:11:36.366Z,65.40
2018-04-12T12:14:04.503Z,66.73
2018-04-12T12:16:32.637Z,67.83
2018-04-12T12:19:00.753Z,65.80
2018-04-12T12:21:28.881Z,63.97
2018-04-12T12:23:57.034Z,63.70
2018-04-12T12:26:25.165Z,66.23
2018-04-12T12:28:54.822Z,64.50
2018-04-12T12:31:22.982Z,63.10
2018-04-12T12:33:51.891Z,64.70
2018-04-12T12:36:20.009Z,63.47
2018-04-12T12:38:48.130Z,65.07
2018-04-12T12:41:16.258Z,63.13
2018-04-12T12:43:44.432Z,66.57
2018-04-12T12:46:12.550Z,63.83
2018-04-12T12:48:40.666Z,68.60
2018-04-12T12:51:10.421Z,68.20
2018-04-12T12:53:38.575Z,69.87
2018-04-12T12:56:07.485Z,72.07
2018-04-12T12:58:35.662Z,71.97
2018-04-12T13:01:03.832Z,73.77
2018-04-12T13:03:32.003Z,70.87
2018-04-12T13:06:00.889Z,71.97
2018-04-12T13:08:29.816Z,69.73
2018-04-12T13:10:57.929Z,71.63
2018-04-12T13:13:26.138Z,68.93
2018-04-12T13:15:54.327Z,70.47
2018-04-12T13:18:22.499Z,70.33
2018-04-12T13:20:50.638Z,69.73
2018-04-12T13:23:19.562Z,70.13
2018-04-12T13:25:47.682Z,69.03
2018-04-12T13:28:15.820Z,69.57
2018-04-12T13:30:43.976Z,66.90
2018-04-12T13:33:12.185Z,66.80
2018-04-12T13:35:40.294Z,68.77
2018-04-12T13:38:08.490Z,66.30
2018-04-12T13:40:36.607Z,69.30
2018-04-12T13:43:04.825Z,66.17
2018-04-12T13:48:12.781Z,63.27
2018-04-12T13:50:40.918Z,65.37
2018-04-12T13:53:09.782Z,65.87
2018-04-12T13:55:37.930Z,64.83
2018-04-12T13:58:06.062Z,63.07
2018-04-12T14:00:34.957Z,63.73
2018-04-12T14:03:03.121Z,64.03
2018-04-12T14:05:32.129Z,65.47
2018-04-12T14:08:01.001Z,65.83
2018-04-12T14:10:29.890Z,64.93
2018-04-12T14:12:58.822Z,65.23
2018-04-12T14:15:26.946Z,65.50
2018-04-12T14:17:55.830Z,64.77
2018-04-12T14:20:24.008Z,65.73
2018-04-12T14:22:52.138Z,61.67
2018-04-12T14:25:20.365Z,64.00
2018-04-12T14:27:49.247Z,64.03
2018-04-12T14:30:18.185Z,62.80
2018-04-12T14:32:46.359Z,61.03
2018-04-12T14:35:14.487Z,61.73
2018-04-12T14:37:43.389Z,63.43
2018-04-12T14:40:11.569Z,63.87
2018-04-12T14:42:40.521Z,63.07
2018-04-12T14:45:08.685Z,66.53
2018-04-12T14:47:36.820Z,62.63
2018-04-12T14:50:04.937Z,63.37
2018-04-12T14:52:33.174Z,63.70
2018-04-12T14:55:01.298Z,63.83
2018-04-12T14:57:29.513Z,64.63
2018-04-12T14:59:57.629Z,65.80
2018-04-12T15:02:25.871Z,62.13
2018-04-12T15:04:54.025Z,61.07
2018-04-12T15:07:22.145Z,62.73
2018-04-12T15:09:50.260Z,62.67
2018-04-12T15:12:19.155Z,59.73
2018-04-12T15:14:48.082Z,62.47
2018-04-12T15:17:16.207Z,62.33
2018-04-12T15:19:44.329Z,63.53
2018-04-12T15:22:12.485Z,62.87
2018-04-12T15:24:40.643Z,63.30
2018-04-12T15:27:08.771Z,63.53
2018-04-12T15:29:36.893Z,64.87
2018-04-12T15:32:05.049Z,61.30
2018-04-12T15:34:33.160Z,64.27
2018-04-12T15:37:01.350Z,62.13
2018-04-12T15:39:29.466Z,63.73
2018-04-12T15:41:58.346Z,64.90
2018-04-12T15:44:26.570Z,63.97
2018-04-12T15:46:55.543Z,64.03
2018-04-12T15:49:24.427Z,63.33
2018-04-12T15:51:53.303Z,61.03
2018-04-12T15:54:22.201Z,59.97
2018-04-12T15:56:51.196Z,64.13
2018-04-12T15:59:20.111Z,60.53
2018-04-12T16:01:48.983Z,65.53
2018-04-12T16:04:17.142Z,62.50
2018-04-12T16:06:46.050Z,62.37
2018-04-12T16:09:14.225Z,63.03
2018-04-12T16:11:43.114Z,62.93
2018-04-12T16:14:11.290Z,64.40
2018-04-12T16:16:40.199Z,63.67
2018-04-12T16:19:08.334Z,63.70
2018-04-12T16:21:37.222Z,61.80
2018-04-12T16:24:06.102Z,62.47
2018-04-12T16:26:34.230Z,63.00
2018-04-12T16:29:02.338Z,61.73
2018-04-12T16:31:30.483Z,64.30
2018-04-12T16:33:58.722Z,64.20
2018-04-12T16:36:26.854Z,64.80
2018-04-12T16:38:55.034Z,63.10
2018-04-12T16:41:23.110Z,64.47
2018-04-12T16:43:52.822Z,63.90
2018-04-12T16:46:20.946Z,65.57
2018-04-12T16:48:49.068Z,65.70
2018-04-12T16:51:17.244Z,65.50
2018-04-12T16:53:45.450Z,64.90
2018-04-12T16:56:13.647Z,65.60
2018-04-12T16:58:41.765Z,65.63
2018-04-12T17:01:10.025Z,64.03
2018-04-12T17:03:38.134Z,66.57
2018-04-12T17:06:07.070Z,65.63
2018-04-12T17:08:35.258Z,65.87
2018-04-12T17:11:03.375Z,62.13
2018-04-12T17:13:32.285Z,66.03
2018-04-12T17:16:00.446Z,67.03
2018-04-12T17:18:28.576Z,65.43
2018-04-12T17:20:56.725Z,64.17
2018-04-12T17:23:24.875Z,65.83
2018-04-12T17:25:53.005Z,67.10
2018-04-12T17:28:21.153Z,66.63
2018-04-12T17:30:49.277Z,66.63
2018-04-12T17:33:18.173Z,66.40
2018-04-12T17:35:47.094Z,63.63
2018-04-12T17:38:15.291Z,64.87
2018-04-12T17:40:43.421Z,64.97
2018-04-12T17:43:11.601Z,65.80
2018-04-12T17:45:39.729Z,67.63
2018-04-12T17:48:07.928Z,70.17
2018-04-12T17:50:36.821Z,68.40
2018-04-12T17:53:05.765Z,67.27
2018-04-12T17:55:33.897Z,68.03
2018-04-12T17:58:02.195Z,68.73
2018-04-12T18:00:30.309Z,69.27
2018-04-12T18:02:58.421Z,69.30
2018-04-12T18:05:26.562Z,68.63
2018-04-12T18:07:54.875Z,68.20
2018-04-12T18:10:22.991Z,67.33
2018-04-12T18:12:51.109Z,70.17
2018-04-12T18:15:19.412Z,66.97
2018-04-12T18:17:47.656Z,71.60
2018-04-12T18:20:15.837Z,69.80
2018-04-12T18:22:43.951Z,68.13
2018-04-12T18:25:12.090Z,66.93
2018-04-12T18:27:40.275Z,69.00
2018-04-12T18:30:08.389Z,69.07
2018-04-12T18:32:36.550Z,68.57
2018-04-12T18:35:04.666Z,68.67
2018-04-12T18:37:33.567Z,71.27
2018-04-12T18:40:01.693Z,70.53
2018-04-12T18:42:31.341Z,71.00
2018-04-12T18:45:00.233Z,68.50
2018-04-12T18:47:28.374Z,69.30
2018-04-12T18:49:56.513Z,67.43
2018-04-12T18:52:24.629Z,69.37
2018-04-12T18:54:52.829Z,67.63
2018-04-12T18:57:21.006Z,66.60
2018-04-12T18:59:49.127Z,68.57
2018-04-12T19:02:17.292Z,67.00
2018-04-12T19:04:45.463Z,68.57
2018-04-12T19:07:13.634Z,69.97
2018-04-12T19:09:41.776Z,66.23
2018-04-12T19:12:09.908Z,67.00
2018-04-12T19:14:38.050Z,68.40
2018-04-12T19:17:06.201Z,70.00
2018-04-12T19:19:34.322Z,71.83
2018-04-12T19:22:02.494Z,71.73
2018-04-12T19:24:30.612Z,69.20
2018-04-12T19:26:58.754Z,68.03
2018-04-12T19:29:27.685Z,69.43
2018-04-12T19:31:55.826Z,68.13
2018-04-12T19:34:24.706Z,69.83
2018-04-12T19:36:52.874Z,69.63
2018-04-12T19:39:21.012Z,71.67
2018-04-12T19:41:49.233Z,70.13
2018-04-12T19:44:17.320Z,69.27
2018-04-12T19:46:46.210Z,69.37
2018-04-12T19:49:15.180Z,69.57
2018-04-12T19:51:43.317Z,70.80
2018-04-12T19:54:11.442Z,73.27
2018-04-12T19:56:40.375Z,70.97
2018-04-12T19:59:08.486Z,69.70
2018-04-12T20:01:36.670Z,72.83
2018-04-12T20:04:04.770Z,73.43
2018-04-12T20:06:32.890Z,72.40
2018-04-12T20:09:01.074Z,71.37
2018-04-12T20:11:29.188Z,74.23
2018-04-12T20:13:57.370Z,74.47
2018-04-12T20:16:25.457Z,71.30
2018-04-12T20:18:53.577Z,70.07
2018-04-12T20:21:22.469Z,70.10
2018-04-12T20:23:51.353Z,69.57
2018-04-12T20:26:19.559Z,74.23
2018-04-12T20:28:47.769Z,73.17
2018-04-12T20:31:15.938Z,72.30
2018-04-12T20:33:44.091Z,72.50
2018-04-12T20:36:12.225Z,72.87
2018-04-12T20:38:40.421Z,70.90
2018-04-12T20:41:08.592Z,69.73
2018-04-12T20:43:36.775Z,73.67
2018-04-12T20:46:04.919Z,73.33
2018-04-12T20:48:33.038Z,72.60
2018-04-12T20:51:01.195Z,71.00
2018-04-12T20:53:29.340Z,70.90
2018-04-12T20:55:57.529Z,73.80
2018-04-12T20:58:25.678Z,74.43
2018-04-12T21:00:54.611Z,72.78
2018-04-12T21:03:22.746Z,71.15
2018-04-12T21:05:50.882Z,69.20
2018-04-12T21:08:19.086Z,70.53
2018-04-12T21:10:47.180Z,72.97
2018-04-12T21:13:16.094Z,69.23
2018-04-12T21:15:44.214Z,67.53
2018-04-12T21:18:12.440Z,73.03
2018-04-12T21:20:40.582Z,69.82
2018-04-12T21:23:09.489Z,73.43
2018-04-12T21:25:37.621Z,71.82
2018-04-12T21:28:05.758Z,73.70
2018-04-12T21:30:33.939Z,76.60
2018-04-12T21:33:02.068Z,76.07
2018-04-12T21:35:31.012Z,76.05
2018-04-12T21:37:59.174Z,74.47
2018-04-12T21:40:27.323Z,72.32
2018-04-12T21:42:55.471Z,67.13
2018-04-12T21:45:25.115Z,76.10
2018-04-12T21:47:53.280Z,71.60
2018-04-12T21:50:21.457Z,71.55
2018-04-12T21:52:49.662Z,71.40
2018-04-12T21:55:17.773Z,73.20
2018-04-12T21:57:46.673Z,74.62
2018-04-12T22:00:15.601Z,71.90
2018-04-12T22:02:43.719Z,74.18
2018-04-12T22:05:12.615Z,74.30
2018-04-12T22:07:41.551Z,73.18
2018-04-12T22:10:09.674Z,69.87
2018-04-12T22:12:38.560Z,70.60
2018-04-12T22:15:06.694Z,72.50
2018-04-12T22:17:34.878Z,74.05
2018-04-12T22:20:03.026Z,72.28
2018-04-12T22:22:31.160Z,76.72
2018-04-12T22:25:00.797Z,73.60
2018-04-12T22:27:28.933Z,72.87
2018-04-12T22:29:57.093Z,69.40
2018-04-12T22:32:25.218Z,74.18
2018-04-12T22:34:54.111Z,72.47
2018-04-12T22:37:22.289Z,65.40
2018-04-12T22:39:50.428Z,72.87
2018-04-12T22:42:19.336Z,70.15
2018-04-12T22:44:48.229Z,65.35
2018-04-12T22:47:17.252Z,68.55
2018-04-12T22:49:45.411Z,65.93
2018-04-12T22:52:13.543Z,68.93
2018-04-12T22:54:41.758Z,65.95
2018-04-12T22:57:09.926Z,69.55
2018-04-12T22:59:38.060Z,66.80
2018-04-12T23:02:07.718Z,68.32
2018-04-12T23:04:35.911Z,68.57
2018-04-12T23:07:04.009Z,69.72
2018-04-12T23:09:32.178Z,68.28
2018-04-12T23:12:00.338Z,63.30
2018-04-12T23:14:28.460Z,70.03
2018-04-12T23:16:57.350Z,64.05
2018-04-12T23:19:26.360Z,63.55
2018-04-12T23:21:54.527Z,62.80
2018-04-12T23:24:23.428Z,65.62
2018-04-12T23:26:51.626Z,63.58
2018-04-12T23:29:19.736Z,60.67
2018-04-12T23:31:48.679Z,59.42
2018-04-12T23:34:16.813Z,61.40
2018-04-12T23:36:45.720Z,65.80
2018-04-12T23:39:13.880Z,67.28
2018-04-12T23:41:42.785Z,65.72
2018-04-12T23:44:10.913Z,62.72
2018-04-12T23:46:39.152Z,63.35
2018-04-12T23:49:07.302Z,61.03
2018-04-12T23:51:35.449Z,60.45
2018-04-12T23:54:04.340Z,58.45
2018-04-12T23:56:33.221Z,54.17
2018-04-12T23:59:01.438Z,55.92
